Time;durP1;ratioP1;P1;durP2;ratioP2;P2;SDS_P1;SDS_P2;PMS_P1;PMS_P2;Temp;Humidity;BMP_temperature;BMP_pressure;BME280_temperature;BME280_humidity;BME280_pressure;Samples;Min_cycle;Max_cycle;Signal;HPM_P1;HPM_P2
2022/06/29 04:02:37;;;;;;;7.67;7.17;;;19.10;99.90;;;;;;5031926;23;20476;-66
2022/06/29 04:05:04;;;;;;;8.63;8.03;;;19.10;99.90;;;;;;5014007;28;20453;-65
2022/06/29 04:07:31;;;;;;;8.87;8.17;;;19.10;99.90;;;;;;5013892;28;20504;-65
2022/06/29 04:10:00;;;;;;;8.83;8.17;;;19.20;99.90;;;;;;5013981;28;20452;-65
2022/06/29 04:12:28;;;;;;;9.47;8.60;;;19.20;99.90;;;;;;5014096;28;20473;-65
2022/06/29 04:14:55;;;;;;;9.97;9.07;;;19.20;99.90;;;;;;5013980;28;20573;-65
2022/06/29 04:17:22;;;;;;;10.00;9.00;;;19.30;99.90;;;;;;5013942;28;20449;-65
2022/06/29 04:19:52;;;;;;;8.80;8.00;;;19.30;99.90;;;;;;5013659;28;20459;-65
2022/06/29 04:22:19;;;;;;;9.43;8.73;;;19.30;99.90;;;;;;5013989;28;20506;-65
2022/06/29 04:24:46;;;;;;;9.60;8.80;;;19.40;99.90;;;;;;5013571;28;20986;-65
2022/06/29 04:27:13;;;;;;;10.70;9.77;;;19.40;99.90;;;;;;5013796;28;20488;-65
2022/06/29 04:29:39;;;;;;;10.30;9.50;;;19.40;99.90;;;;;;5013752;28;20457;-65
2022/06/29 04:32:07;;;;;;;10.07;9.27;;;19.30;99.90;;;;;;5015134;28;20987;-65
2022/06/29 04:34:33;;;;;;;10.90;9.80;;;19.20;99.90;;;;;;5017368;28;20456;-65
2022/06/29 04:37:01;;;;;;;11.80;10.80;;;19.20;99.90;;;;;;5017153;28;20449;-65
2022/06/29 04:39:28;;;;;;;11.73;10.10;;;19.10;99.90;;;;;;5016803;28;20940;-65
2022/06/29 04:41:55;;;;;;;12.17;11.37;;;19.00;99.90;;;;;;5016682;28;20472;-65
2022/06/29 04:44:23;;;;;;;13.33;12.30;;;19.00;99.90;;;;;;5017067;28;20452;-65
2022/06/29 04:46:50;;;;;;;13.97;12.80;;;18.90;99.90;;;;;;5016987;28;20472;-65
2022/06/29 04:49:16;;;;;;;14.87;13.47;;;18.90;99.90;;;;;;5017150;28;20463;-65
2022/06/29 04:51:43;;;;;;;14.43;13.03;;;18.80;99.90;;;;;;5016864;28;20480;-65
2022/06/29 04:54:11;;;;;;;14.40;13.30;;;18.90;99.90;;;;;;5016930;28;20456;-65
2022/06/29 04:56:38;;;;;;;14.23;13.10;;;18.90;99.90;;;;;;5017129;28;20461;-65
2022/06/29 04:59:05;;;;;;;13.97;12.97;;;18.90;99.90;;;;;;5017018;28;20453;-65
2022/06/29 05:01:33;;;;;;;14.97;13.80;;;18.90;99.90;;;;;;5016552;28;20855;-65
2022/06/29 05:04:00;;;;;;;14.50;13.37;;;18.90;99.90;;;;;;5016894;28;20453;-65
2022/06/29 05:06:27;;;;;;;14.13;12.93;;;19.00;99.90;;;;;;5016793;28;21002;-65
2022/06/29 05:08:54;;;;;;;14.27;12.93;;;19.10;99.90;;;;;;5016678;28;20452;-65
2022/06/29 05:11:23;;;;;;;15.00;13.57;;;19.10;99.90;;;;;;5016585;28;20481;-65
2022/06/29 05:13:50;;;;;;;15.07;13.80;;;19.10;99.90;;;;;;5016653;28;20533;-66
2022/06/29 05:16:19;;;;;;;15.00;13.90;;;19.10;99.90;;;;;;5016466;28;20456;-66
2022/06/29 05:18:46;;;;;;;16.13;14.83;;;19.10;99.90;;;;;;5016264;28;20449;-66
2022/06/29 05:21:13;;;;;;;14.33;13.37;;;18.90;99.90;;;;;;5016440;28;20481;-66
2022/06/29 05:23:40;;;;;;;14.77;13.77;;;18.90;99.90;;;;;;5016203;28;20456;-66
2022/06/29 05:26:06;;;;;;;16.67;15.47;;;18.80;99.90;;;;;;5016631;28;20457;-66
2022/06/29 05:28:34;;;;;;;16.40;14.10;;;18.80;99.90;;;;;;5017250;28;20535;-66
2022/06/29 05:31:01;;;;;;;14.50;13.37;;;18.80;99.90;;;;;;5015916;28;20548;-66
2022/06/29 05:33:35;;;;;;;15.10;14.03;;;18.90;99.90;;;;;;5015738;28;20944;-65
2022/06/29 05:36:03;;;;;;;14.07;12.90;;;18.90;99.90;;;;;;5016047;28;20460;-65
2022/06/29 05:38:30;;;;;;;15.50;14.20;;;18.90;99.90;;;;;;5016523;28;20803;-66
2022/06/29 05:40:57;;;;;;;14.20;12.90;;;19.00;99.90;;;;;;5016227;28;20472;-65
2022/06/29 05:43:24;;;;;;;13.47;12.37;;;19.10;99.90;;;;;;5016556;28;20452;-66
2022/06/29 05:45:52;;;;;;;13.97;12.67;;;19.10;99.90;;;;;;5016000;28;20448;-65
2022/06/29 05:48:18;;;;;;;13.60;12.40;;;19.20;99.90;;;;;;5015902;28;20488;-65
2022/06/29 05:50:45;;;;;;;13.43;12.37;;;19.30;99.90;;;;;;5015943;28;20480;-65
2022/06/29 05:53:12;;;;;;;14.77;12.83;;;19.30;99.90;;;;;;5016474;28;20464;-66
2022/06/29 05:55:39;;;;;;;14.70;13.13;;;19.30;99.90;;;;;;5016577;28;20463;-66
2022/06/29 05:58:06;;;;;;;14.17;12.73;;;19.30;99.90;;;;;;5015792;28;20452;-66
2022/06/29 06:00:33;;;;;;;13.87;12.47;;;19.40;99.90;;;;;;5015780;28;20627;-66
2022/06/29 06:03:01;;;;;;;15.27;13.73;;;19.50;99.90;;;;;;5016148;28;20800;-66
2022/06/29 06:05:28;;;;;;;12.97;11.70;;;19.50;99.90;;;;;;5015767;28;20448;-66
2022/06/29 06:07:55;;;;;;;13.27;12.37;;;19.60;99.90;;;;;;5015814;28;20499;-66
2022/06/29 06:10:21;;;;;;;13.03;12.17;;;19.70;99.90;;;;;;5015379;28;20545;-63
2022/06/29 06:12:48;;;;;;;12.77;11.40;;;19.90;99.90;;;;;;5015708;28;20457;-66
2022/06/29 06:15:15;;;;;;;11.93;11.03;;;20.20;99.90;;;;;;5015561;28;20457;-66
2022/06/29 06:17:41;;;;;;;11.87;10.97;;;20.40;99.90;;;;;;5015473;28;20502;-66
2022/06/29 06:20:11;;;;;;;11.80;10.63;;;20.60;99.90;;;;;;5015387;28;20811;-66
2022/06/29 06:22:38;;;;;;;11.80;10.90;;;20.80;99.90;;;;;;5015348;28;20457;-66
2022/06/29 06:25:05;;;;;;;11.43;10.40;;;20.90;99.90;;;;;;5015213;28;20460;-66
2022/06/29 06:27:32;;;;;;;12.17;11.10;;;20.90;99.90;;;;;;5014670;28;20476;-66
2022/06/29 06:29:59;;;;;;;12.87;11.67;;;21.00;99.90;;;;;;5016140;28;20460;-66
2022/06/29 06:32:26;;;;;;;11.63;10.73;;;21.10;99.90;;;;;;5015122;28;20477;-65
2022/06/29 06:34:52;;;;;;;11.97;11.07;;;21.00;99.90;;;;;;5015018;28;20453;-66
2022/06/29 06:37:21;;;;;;;12.77;11.43;;;21.10;99.90;;;;;;5015389;28;20449;-65
2022/06/29 06:42:29;;;;;;;10.73;9.93;;;21.50;99.90;;;;;;5014302;28;20493;-66
2022/06/29 06:44:56;;;;;;;10.97;10.00;;;21.80;99.90;;;;;;5014451;28;20437;-66
2022/06/29 06:47:23;;;;;;;11.50;10.60;;;22.10;99.90;;;;;;5014909;28;20488;-66
2022/06/29 06:49:50;;;;;;;11.03;9.97;;;22.30;99.90;;;;;;5014953;28;20459;-66
2022/06/29 06:52:17;;;;;;;10.17;9.27;;;22.60;99.90;;;;;;5014473;28;20879;-66
2022/06/29 06:54:45;;;;;;;10.27;9.47;;;23.00;99.90;;;;;;5014363;28;20467;-66
2022/06/29 06:57:12;;;;;;;11.37;8.83;;;23.30;99.90;;;;;;5014697;28;20457;-66
2022/06/29 06:59:39;;;;;;;9.70;8.93;;;23.60;99.90;;;;;;5014333;28;20825;-66
2022/06/29 07:02:06;;;;;;;9.10;7.97;;;23.90;99.90;;;;;;5014008;28;20543;-66
2022/06/29 07:04:32;;;;;;;7.90;7.13;;;24.40;99.90;;;;;;5014780;28;20457;-66
2022/06/29 07:06:59;;;;;;;9.67;8.67;;;24.90;99.90;;;;;;5014753;28;20455;-66
2022/06/29 07:09:26;;;;;;;8.70;7.93;;;25.40;99.90;;;;;;5014657;28;20481;-66
2022/06/29 07:11:54;;;;;;;8.83;7.03;;;26.00;99.90;;;;;;5014799;28;20473;-66
2022/06/29 07:14:20;;;;;;;7.97;7.37;;;26.50;99.90;;;;;;5015024;28;20457;-66
2022/06/29 07:16:47;;;;;;;8.23;7.63;;;27.20;99.90;;;;;;5014956;28;20464;-66
2022/06/29 07:19:14;;;;;;;7.17;6.60;;;27.70;99.90;;;;;;5014849;28;20456;-66
2022/06/29 07:21:40;;;;;;;9.00;7.83;;;28.00;99.90;;;;;;5015611;28;20473;-67
2022/06/29 07:24:08;;;;;;;8.50;7.80;;;28.50;99.90;;;;;;5015766;28;20459;-66
2022/06/29 07:26:34;;;;;;;9.93;8.17;;;28.80;99.90;;;;;;5015577;28;20457;-67
2022/06/29 07:29:02;;;;;;;9.13;8.43;;;29.10;99.90;;;;;;5014774;28;20480;-66
2022/06/29 07:31:29;;;;;;;7.73;6.93;;;29.20;99.90;;;;;;5014364;28;20473;-66
2022/06/29 07:33:56;;;;;;;8.33;6.80;;;29.40;99.90;;;;;;5014350;28;20441;-66
2022/06/29 07:36:22;;;;;;;7.20;6.70;;;29.90;99.90;;;;;;5014305;28;20459;-66
2022/06/29 07:38:49;;;;;;;8.53;7.50;;;30.30;99.90;;;;;;5013740;28;20480;-66
2022/06/29 07:41:16;;;;;;;7.47;6.87;;;30.80;98.70;;;;;;5013841;28;20980;-66
2022/06/29 07:43:44;;;;;;;6.50;6.10;;;31.00;98.20;;;;;;5014245;28;20480;-66
2022/06/29 07:46:12;;;;;;;7.83;7.13;;;31.00;98.90;;;;;;5013961;28;20456;-66
2022/06/29 07:48:39;;;;;;;6.63;6.23;;;31.40;97.70;;;;;;5014249;28;20481;-66
2022/06/29 07:51:06;;;;;;;7.20;6.80;;;31.60;95.40;;;;;;5014160;28;20472;-66
2022/06/29 07:53:33;;;;;;;6.53;6.13;;;31.80;93.10;;;;;;5014225;28;20458;-66
2022/06/29 07:55:59;;;;;;;7.80;7.20;;;32.00;93.60;;;;;;5014116;28;20459;-67
2022/06/29 07:58:26;;;;;;;7.87;7.37;;;31.90;94.20;;;;;;5014044;28;20457;-66
2022/06/29 08:00:53;;;;;;;7.50;7.10;;;32.10;92.60;;;;;;5013734;28;20491;-66
2022/06/29 08:03:21;;;;;;;7.30;6.60;;;32.10;91.80;;;;;;5013863;28;20967;-66
2022/06/29 08:05:48;;;;;;;7.00;6.40;;;32.30;92.10;;;;;;5014029;28;20468;-66
2022/06/29 08:08:15;;;;;;;7.70;7.10;;;32.40;91.70;;;;;;5017430;28;20480;-66
2022/06/29 08:10:42;;;;;;;7.60;6.93;;;32.60;91.50;;;;;;5017910;28;20502;-66
2022/06/29 08:13:09;;;;;;;7.77;6.93;;;32.80;90.50;;;;;;5017864;28;20467;-66
2022/06/29 08:15:36;;;;;;;6.70;6.23;;;32.60;88.10;;;;;;5017564;28;20460;-66
2022/06/29 08:18:03;;;;;;;6.23;5.73;;;32.00;88.50;;;;;;5018458;28;20453;-66
2022/06/29 08:20:31;;;;;;;6.77;6.37;;;32.00;90.60;;;;;;5017984;28;21049;-66
2022/06/29 08:22:58;;;;;;;5.70;5.30;;;32.20;89.70;;;;;;5017227;28;20847;-66
2022/06/29 08:25:24;;;;;;;5.90;5.50;;;32.50;88.10;;;;;;5017356;28;20452;-66
2022/06/29 08:27:53;;;;;;;6.83;6.47;;;32.90;87.30;;;;;;5017450;28;20476;-66
2022/06/29 08:30:20;;;;;;;5.40;5.10;;;33.20;84.80;;;;;;5017374;28;20460;-66
2022/06/29 08:32:47;;;;;;;6.10;5.70;;;33.40;86.60;;;;;;5017412;28;20452;-65
2022/06/29 08:35:16;;;;;;;6.10;5.70;;;33.60;81.80;;;;;;5017116;28;20943;-66
2022/06/29 08:37:45;;;;;;;5.67;5.37;;;33.60;85.60;;;;;;5017282;28;20453;-65
2022/06/29 08:40:15;;;;;;;5.33;4.93;;;33.90;82.40;;;;;;5017018;28;20452;-65
2022/06/29 08:42:42;;;;;;;6.37;5.70;;;33.90;79.10;;;;;;5017139;28;20452;-65
2022/06/29 08:45:11;;;;;;;5.73;5.43;;;33.60;79.20;;;;;;5017355;28;20460;-66
2022/06/29 08:47:40;;;;;;;5.80;5.40;;;33.60;79.10;;;;;;5016680;28;20457;-66
2022/06/29 08:50:08;;;;;;;5.53;5.07;;;34.00;77.10;;;;;;5017101;28;20456;-66
2022/06/29 08:52:36;;;;;;;5.80;5.40;;;34.00;75.80;;;;;;5016985;28;20966;-66
2022/06/29 08:55:06;;;;;;;5.30;4.90;;;34.20;75.10;;;;;;5016696;28;21023;-66
2022/06/29 08:57:36;;;;;;;5.47;5.07;;;33.70;75.40;;;;;;5016939;28;20536;-66
2022/06/29 09:00:04;;;;;;;5.30;4.90;;;33.60;75.10;;;;;;5016853;28;20452;-66
2022/06/29 09:02:30;;;;;;;5.80;5.30;;;33.70;75.60;;;;;;5016351;28;21010;-66
2022/06/29 09:04:57;;;;;;;6.30;6.00;;;33.70;76.90;;;;;;5016860;28;20841;-66
2022/06/29 09:07:25;;;;;;;5.53;5.23;;;33.00;75.80;;;;;;5017051;28;20472;-66
2022/06/29 09:09:58;;;;;;;5.00;4.60;;;32.90;76.40;;;;;;5016980;28;20551;-66
2022/06/29 09:12:27;;;;;;;5.40;5.10;;;32.70;79.10;;;;;;5016692;28;20476;-66
2022/06/29 09:14:53;;;;;;;5.87;5.37;;;32.70;77.60;;;;;;5016812;28;20461;-66
2022/06/29 09:17:21;;;;;;;4.90;4.53;;;33.00;77.10;;;;;;5016019;28;20459;-66
2022/06/29 09:19:48;;;;;;;4.87;4.67;;;33.10;77.10;;;;;;5016756;28;20449;-66
2022/06/29 09:22:16;;;;;;;5.33;5.03;;;33.70;74.90;;;;;;5016428;28;20476;-66
2022/06/29 09:24:43;;;;;;;5.13;4.83;;;33.90;77.30;;;;;;5015984;28;20962;-66
2022/06/29 09:27:11;;;;;;;4.67;4.30;;;34.30;73.30;;;;;;5016443;28;20463;-66
2022/06/29 09:29:41;;;;;;;4.63;4.40;;;34.90;75.00;;;;;;5015884;28;20990;-66
2022/06/29 09:32:10;;;;;;;4.73;4.43;;;35.40;72.30;;;;;;5016102;28;20559;-66
2022/06/29 09:34:38;;;;;;;4.70;4.40;;;35.50;71.30;;;;;;5015882;28;20855;-66
2022/06/29 09:37:06;;;;;;;4.47;4.27;;;35.70;69.70;;;;;;5016098;28;20459;-66
2022/06/29 09:39:34;;;;;;;4.97;4.67;;;36.30;68.10;;;;;;5016129;28;20453;-66
2022/06/29 09:42:01;;;;;;;3.40;3.20;;;37.00;65.40;;;;;;5016159;28;20546;-66
2022/06/29 09:44:28;;;;;;;3.20;3.00;;;36.50;63.70;;;;;;5015871;28;20546;-65
2022/06/29 09:46:57;;;;;;;3.57;3.37;;;35.40;64.80;;;;;;5015947;28;20459;-65
2022/06/29 09:49:27;;;;;;;3.93;3.63;;;35.20;68.80;;;;;;5016528;28;20483;-65
2022/06/29 09:51:56;;;;;;;4.10;3.70;;;34.40;70.70;;;;;;5015974;28;20483;-65
2022/06/29 09:54:25;;;;;;;3.93;3.63;;;33.80;70.40;;;;;;5015800;28;20463;-65
2022/06/29 09:56:52;;;;;;;3.93;3.63;;;33.40;71.70;;;;;;5016008;28;20452;-66
2022/06/29 10:02:34;;;;;;;3.83;3.70;;;32.80;75.30;;;;;;5015729;28;20452;-66
2022/06/29 10:05:04;;;;;;;7.10;4.50;;;32.20;75.30;;;;;;5015489;28;20519;-66
2022/06/29 10:07:31;;;;;;;4.23;4.03;;;32.20;75.50;;;;;;5015507;28;20983;-66
2022/06/29 10:09:59;;;;;;;4.17;3.97;;;32.30;76.40;;;;;;5015487;28;20487;-66
2022/06/29 10:15:34;;;;;;;4.63;4.33;;;33.20;76.60;;;;;;5015389;28;20432;-66
2022/06/29 10:18:10;;;;;;;4.13;3.90;;;33.30;73.30;;;;;;5015555;28;20448;-65
2022/06/29 10:20:42;;;;;;;3.97;3.60;;;33.20;74.00;;;;;;5015298;28;20841;-65
2022/06/29 10:23:09;;;;;;;4.90;4.43;;;33.10;73.30;;;;;;5015388;28;20437;-66
2022/06/29 10:25:37;;;;;;;4.90;4.50;;;32.70;75.60;;;;;;5015164;28;20460;-66
2022/06/29 10:28:13;;;;;;;7.20;6.60;;;31.60;77.50;;;;;;5015385;28;20453;-66
2022/06/29 10:30:40;;;;;;;6.80;6.30;;;31.00;80.30;;;;;;5015396;28;20481;-65
2022/06/29 10:33:34;;;;;;;7.90;5.97;;;30.30;83.90;;;;;;5015330;28;20457;-66
2022/06/29 10:36:05;;;;;;;6.40;5.90;;;30.00;89.10;;;;;;5015380;28;20457;-66
2022/06/29 10:38:36;;;;;;;7.63;7.13;;;29.80;87.90;;;;;;5015486;28;20493;-65
2022/06/29 10:43:07;;;;;;;6.80;6.20;;;29.60;88.20;;;;;;5014978;28;20473;-66
2022/06/29 10:43:56;;;;;;;6.57;6.10;;;29.50;88.60;;;;;;5014634;28;20532;-66
2022/06/29 10:46:23;;;;;;;6.80;6.30;;;29.30;89.90;;;;;;5015065;28;20552;-66
2022/06/29 10:49:21;;;;;;;6.40;5.80;;;29.20;91.60;;;;;;5015203;28;20215;-66
2022/06/29 10:51:49;;;;;;;6.43;5.50;;;29.20;90.00;;;;;;5015250;28;20479;-67
2022/06/29 10:54:23;;;;;;;7.03;5.63;;;29.20;91.20;;;;;;5014887;28;20924;-67
2022/06/29 10:56:50;;;;;;;6.10;5.80;;;29.30;91.30;;;;;;5014618;28;20452;-66
2022/06/29 10:59:32;;;;;;;5.63;5.20;;;29.50;90.80;;;;;;5014947;28;20506;-66
2022/06/29 11:02:09;;;;;;;7.40;6.90;;;29.30;92.30;;;;;;5014723;28;20483;-67
2022/06/29 11:04:38;;;;;;;6.80;6.20;;;29.10;91.70;;;;;;5014958;28;20852;-66
2022/06/29 11:12:33;;;;;;;6.70;6.10;;;29.50;91.50;;;;;;5014627;28;20826;-66
2022/06/29 11:17:46;;;;;;;6.53;6.13;;;29.60;91.80;;;;;;5014471;28;20416;-67
2022/06/29 11:20:24;;;;;;;5.27;4.90;;;29.70;90.90;;;;;;5015818;28;20459;-65
2022/06/29 11:22:50;;;;;;;6.37;5.87;;;29.80;92.50;;;;;;5014858;28;20437;-66
2022/06/29 11:25:17;;;;;;;5.47;5.17;;;29.80;91.70;;;;;;5014380;28;20456;-67
2022/06/29 11:27:44;;;;;;;6.50;6.00;;;30.00;91.50;;;;;;5014577;28;20461;-66
2022/06/29 11:30:15;;;;;;;6.63;5.97;;;30.10;90.40;;;;;;5014285;28;20480;-67
2022/06/29 11:32:44;;;;;;;5.87;5.50;;;30.10;90.00;;;;;;5014172;28;20441;-67
2022/06/29 11:35:13;;;;;;;5.87;4.77;;;29.90;91.30;;;;;;5014507;28;20511;-67
2022/06/29 11:37:48;;;;;;;6.93;6.30;;;29.80;92.70;;;;;;5014645;28;20453;-67
2022/06/29 11:40:18;;;;;;;6.00;4.67;;;29.90;91.60;;;;;;5016496;28;20448;-66
2022/06/29 11:45:40;;;;;;;11.63;4.93;;;29.90;91.70;;;;;;5021323;28;20464;-66
2022/06/29 11:48:18;;;;;;;4.90;4.60;;;29.90;91.30;;;;;;5020789;28;20915;-66
2022/06/29 11:50:47;;;;;;;4.67;4.27;;;30.00;91.00;;;;;;5020998;28;20480;-66
2022/06/29 11:53:35;;;;;;;5.60;5.10;;;30.00;91.60;;;;;;5021030;28;20456;-66
2022/06/29 11:56:02;;;;;;;5.03;4.63;;;29.90;91.10;;;;;;5021260;28;20496;-67
2022/06/29 11:58:29;;;;;;;4.83;4.50;;;29.90;91.30;;;;;;5021134;28;20453;-66
2022/06/29 12:00:55;;;;;;;5.90;5.40;;;30.00;92.10;;;;;;5020776;28;20479;-66
2022/06/29 12:03:22;;;;;;;4.47;4.17;;;29.90;90.80;;;;;;5021356;28;20807;-66
2022/06/29 12:05:57;;;;;;;4.90;4.50;;;29.90;91.30;;;;;;5020938;28;20459;-66
2022/06/29 12:08:26;;;;;;;4.80;4.50;;;29.80;91.40;;;;;;5020809;28;20506;-66
2022/06/29 12:10:53;;;;;;;4.60;4.30;;;29.80;90.40;;;;;;5020864;28;20484;-66
2022/06/29 12:13:19;;;;;;;5.20;4.53;;;29.90;91.40;;;;;;5020795;28;20476;-67
2022/06/29 12:15:46;;;;;;;5.10;4.70;;;30.10;92.20;;;;;;5021648;28;20572;-66
2022/06/29 12:18:16;;;;;;;5.03;4.73;;;30.30;91.50;;;;;;5020995;28;20464;-67
2022/06/29 12:20:42;;;;;;;4.80;4.50;;;30.50;91.60;;;;;;5020759;28;20473;-66
2022/06/29 12:23:09;;;;;;;4.90;4.50;;;30.50;91.20;;;;;;5021053;28;20863;-66
2022/06/29 12:25:37;;;;;;;6.03;4.40;;;30.80;92.30;;;;;;5020869;28;20452;-67
2022/06/29 12:28:04;;;;;;;4.70;4.40;;;30.90;91.10;;;;;;5021243;28;20817;-67
2022/06/29 12:30:31;;;;;;;5.10;4.70;;;30.90;91.00;;;;;;5021489;28;20472;-66
2022/06/29 12:32:58;;;;;;;4.70;4.40;;;30.90;91.60;;;;;;5021539;28;20452;-66
2022/06/29 12:35:25;;;;;;;6.10;5.37;;;30.90;92.40;;;;;;5021560;28;20463;-67
2022/06/29 12:37:57;;;;;;;5.00;4.60;;;31.10;92.20;;;;;;5020699;28;20456;-67
2022/06/29 12:40:24;;;;;;;5.37;5.07;;;31.20;92.20;;;;;;5021121;28;20454;-66
2022/06/29 12:42:52;;;;;;;5.30;4.90;;;31.20;91.40;;;;;;5020706;28;20479;-66
2022/06/29 12:45:20;;;;;;;4.40;4.10;;;31.10;91.70;;;;;;5020403;28;20452;-67
2022/06/29 12:47:47;;;;;;;5.30;4.80;;;31.40;90.50;;;;;;5020348;28;20456;-66
2022/06/29 12:50:14;;;;;;;4.70;4.40;;;31.50;91.50;;;;;;5020324;28;20468;-66
2022/06/29 12:52:46;;;;;;;5.07;4.57;;;31.80;89.40;;;;;;5017694;28;20814;-66
2022/06/29 12:55:13;;;;;;;8.43;4.80;;;32.10;88.40;;;;;;5017404;28;20473;-66
2022/06/29 12:57:40;;;;;;;4.60;4.30;;;32.20;86.00;;;;;;5017147;28;20962;-66
2022/06/29 13:00:09;;;;;;;6.03;4.20;;;32.10;86.60;;;;;;5017314;28;20449;-66
2022/06/29 13:02:36;;;;;;;3.80;3.30;;;32.40;89.80;;;;;;5016830;28;20975;-66
2022/06/29 13:05:03;;;;;;;5.20;3.60;;;32.50;88.10;;;;;;5017191;28;20452;-65
2022/06/29 13:07:30;;;;;;;3.97;3.57;;;32.50;83.70;;;;;;5017074;28;20527;-65
2022/06/29 13:09:58;;;;;;;4.00;3.60;;;32.50;78.50;;;;;;5017330;28;20480;-65
2022/06/29 13:12:25;;;;;;;4.50;4.10;;;32.20;81.40;;;;;;5017626;28;20480;-66
2022/06/29 13:14:52;;;;;;;4.43;3.83;;;32.00;82.10;;;;;;5016823;28;20464;-65
2022/06/29 13:17:21;;;;;;;4.00;3.80;;;31.60;85.00;;;;;;5017299;28;20464;-66
2022/06/29 13:19:49;;;;;;;4.77;4.30;;;31.50;83.90;;;;;;5017132;28;20445;-66
2022/06/29 13:22:16;;;;;;;3.57;3.33;;;31.30;85.60;;;;;;5016782;28;20508;-66
2022/06/29 13:24:43;;;;;;;4.03;3.80;;;31.10;86.80;;;;;;5016553;28;20548;-66
2022/06/29 13:27:10;;;;;;;4.73;4.20;;;31.30;89.00;;;;;;5016871;28;20468;-66
2022/06/29 13:29:37;;;;;;;3.80;3.40;;;31.40;88.80;;;;;;5016778;28;20472;-66
2022/06/29 13:32:04;;;;;;;4.33;3.80;;;31.80;88.30;;;;;;5016720;28;20473;-66
2022/06/29 13:34:32;;;;;;;5.43;5.00;;;32.10;83.90;;;;;;5016583;28;20464;-66
2022/06/29 13:36:59;;;;;;;4.07;3.70;;;32.10;84.30;;;;;;5016633;28;20452;-66
2022/06/29 13:39:26;;;;;;;5.97;4.47;;;32.00;86.10;;;;;;5016796;28;20453;-66
2022/06/29 13:41:53;;;;;;;4.73;4.33;;;31.90;84.10;;;;;;5016416;28;20473;-66
2022/06/29 13:44:19;;;;;;;4.40;4.00;;;31.90;84.70;;;;;;5016148;28;20457;-67
2022/06/29 13:46:46;;;;;;;4.67;4.30;;;31.90;85.00;;;;;;5016215;28;20936;-66
2022/06/29 13:49:13;;;;;;;5.97;5.43;;;31.60;84.00;;;;;;5016541;28;20445;-67
2022/06/29 13:51:41;;;;;;;4.07;3.80;;;31.50;86.70;;;;;;5016484;28;20508;-66
2022/06/29 13:54:08;;;;;;;4.47;4.10;;;31.70;87.80;;;;;;5016243;28;20464;-66
2022/06/29 13:56:35;;;;;;;5.33;4.40;;;31.80;85.60;;;;;;5016450;28;20456;-66
2022/06/29 13:59:02;;;;;;;6.33;4.00;;;32.00;87.20;;;;;;5016956;28;20507;-66
2022/06/29 14:01:28;;;;;;;4.83;4.10;;;32.20;89.40;;;;;;5016068;28;20481;-66
2022/06/29 14:03:57;;;;;;;4.40;4.10;;;32.40;88.00;;;;;;5015227;28;20808;-66
2022/06/29 14:06:24;;;;;;;4.10;3.70;;;32.30;83.30;;;;;;5016488;28;20467;-66
2022/06/29 14:08:52;;;;;;;4.63;4.37;;;32.10;84.20;;;;;;5015977;28;20457;-66
2022/06/29 14:11:20;;;;;;;4.60;4.20;;;32.00;84.60;;;;;;5015760;28;20882;-66
2022/06/29 14:13:46;;;;;;;5.53;4.17;;;31.90;84.70;;;;;;5015987;28;20551;-66
2022/06/29 14:16:13;;;;;;;4.00;3.80;;;31.80;83.90;;;;;;5016010;28;20460;-67
2022/06/29 14:18:40;;;;;;;4.50;4.23;;;31.60;83.90;;;;;;5015943;28;20463;-66
2022/06/29 14:21:07;;;;;;;5.20;4.47;;;31.50;87.70;;;;;;5015930;28;20527;-63
2022/06/29 14:23:34;;;;;;;6.17;3.63;;;31.60;85.70;;;;;;5016021;28;20552;-63
2022/06/29 14:26:02;;;;;;;4.83;4.27;;;31.60;85.90;;;;;;5016376;28;20456;-63
2022/06/29 14:28:29;;;;;;;3.83;3.63;;;31.60;88.10;;;;;;5015559;28;20456;-62
2022/06/29 14:30:56;;;;;;;3.63;3.30;;;31.50;87.40;;;;;;5015872;28;20480;-62
2022/06/29 14:33:22;;;;;;;4.87;4.47;;;31.40;82.90;;;;;;5015795;28;20449;-62
2022/06/29 14:35:49;;;;;;;4.40;4.03;;;31.50;88.30;;;;;;5015721;28;20828;-62
2022/06/29 14:38:16;;;;;;;4.00;3.80;;;31.60;88.30;;;;;;5015438;28;20464;-62
2022/06/29 14:40:43;;;;;;;5.83;4.27;;;31.60;87.90;;;;;;5015179;28;20483;-63
2022/06/29 14:43:11;;;;;;;4.70;4.40;;;31.70;87.60;;;;;;5015220;28;20457;-62
2022/06/29 14:45:39;;;;;;;6.80;4.13;;;31.80;86.60;;;;;;5015485;28;20456;-62
2022/06/29 14:48:07;;;;;;;4.63;3.90;;;31.80;83.80;;;;;;5015205;28;20461;-63
2022/06/29 14:50:35;;;;;;;4.50;4.10;;;31.60;84.10;;;;;;5015041;28;20480;-63
2022/06/29 14:53:02;;;;;;;4.43;4.07;;;31.50;85.10;;;;;;5015412;28;20459;-62
2022/06/29 14:55:29;;;;;;;4.20;3.73;;;31.40;86.30;;;;;;5015398;28;20459;-62
2022/06/29 14:57:55;;;;;;;4.00;3.80;;;31.30;87.10;;;;;;5015174;28;20453;-62
2022/06/29 15:00:24;;;;;;;5.03;4.33;;;31.30;87.20;;;;;;5015344;28;20455;-63
2022/06/29 15:02:51;;;;;;;4.17;3.70;;;31.00;85.10;;;;;;5015157;28;20456;-63
2022/06/29 15:05:18;;;;;;;5.03;4.50;;;31.00;87.90;;;;;;5014685;28;20448;-63
2022/06/29 15:07:44;;;;;;;3.80;3.50;;;31.00;90.20;;;;;;5015190;28;20908;-63
2022/06/29 15:10:11;;;;;;;3.67;3.37;;;31.20;90.00;;;;;;5014714;28;20484;-63
2022/06/29 15:12:38;;;;;;;4.07;3.80;;;31.30;88.90;;;;;;5014990;28;20453;-63
2022/06/29 15:15:06;;;;;;;4.00;3.60;;;31.40;88.00;;;;;;5014394;28;20511;-64
2022/06/29 15:17:34;;;;;;;4.67;4.37;;;31.50;86.90;;;;;;5014830;28;20459;-64
2022/06/29 15:20:01;;;;;;;4.50;4.10;;;31.70;86.50;;;;;;5014628;28;20460;-63
2022/06/29 15:22:28;;;;;;;4.00;3.57;;;31.60;85.00;;;;;;5014780;28;20476;-63
2022/06/29 15:24:55;;;;;;;4.10;3.87;;;31.70;86.10;;;;;;5015378;28;20479;-62
2022/06/29 15:27:21;;;;;;;5.57;3.73;;;31.50;82.90;;;;;;5018441;28;20503;-63
2022/06/29 15:29:48;;;;;;;4.47;4.10;;;31.40;84.60;;;;;;5020372;28;20457;-62
2022/06/29 15:32:15;;;;;;;3.73;3.50;;;31.30;85.70;;;;;;5019970;28;20473;-62
2022/06/29 15:40:26;;;;;;;4.13;3.83;;;31.30;85.50;;;;;;4973706;28;20498;-63
2022/06/29 15:42:53;;;;;;;4.40;3.57;;;31.20;84.80;;;;;;4973575;28;20485;-63
2022/06/29 15:45:20;;;;;;;3.93;3.63;;;31.20;85.90;;;;;;4991533;28;20514;-63
2022/06/29 15:47:47;;;;;;;4.60;4.20;;;31.20;83.80;;;;;;5014924;28;20453;-63
2022/06/29 15:50:15;;;;;;;5.20;4.10;;;31.10;86.20;;;;;;5014410;28;20503;-63
2022/06/29 15:52:42;;;;;;;5.73;3.90;;;31.10;85.70;;;;;;5014347;28;20484;-63
2022/06/29 15:57:54;;;;;;;3.70;3.50;;;31.20;84.80;;;;;;5014326;28;20501;-63
2022/06/29 16:00:20;;;;;;;4.73;4.33;;;30.90;81.70;;;;;;5013988;28;20445;-63
2022/06/29 16:02:47;;;;;;;4.00;3.70;;;30.90;84.10;;;;;;5014272;28;20448;-63
2022/06/29 16:05:15;;;;;;;4.17;3.80;;;30.90;86.00;;;;;;5014044;28;20441;-63
2022/06/29 16:07:42;;;;;;;4.37;3.97;;;30.70;83.90;;;;;;5014258;28;20457;-63
2022/06/29 16:10:09;;;;;;;4.27;3.87;;;30.70;85.60;;;;;;5013888;28;20461;-62
2022/06/29 16:12:36;;;;;;;4.33;4.03;;;30.70;84.20;;;;;;5014734;28;20833;-62
2022/06/29 16:15:05;;;;;;;6.03;4.50;;;30.60;83.30;;;;;;5015077;28;20464;-63
2022/06/29 16:17:33;;;;;;;4.20;3.87;;;30.50;85.50;;;;;;5014807;28;20511;-62
2022/06/29 16:19:59;;;;;;;4.33;4.03;;;30.50;85.30;;;;;;5014468;28;20951;-63
2022/06/29 16:22:27;;;;;;;4.30;4.00;;;30.40;85.20;;;;;;5014371;28;20476;-62
2022/06/29 16:24:54;;;;;;;5.07;4.60;;;30.40;84.50;;;;;;5014221;28;20477;-62
2022/06/29 16:27:21;;;;;;;5.07;4.57;;;30.20;85.50;;;;;;5014643;28;20464;-62
2022/06/29 16:29:48;;;;;;;4.23;3.93;;;30.30;86.00;;;;;;5018103;28;20461;-64
2022/06/29 16:32:15;;;;;;;5.53;5.07;;;30.30;85.00;;;;;;5017895;28;20484;-63
2022/06/29 16:34:41;;;;;;;5.77;4.30;;;30.30;85.50;;;;;;5017976;28;20805;-63
2022/06/29 16:37:08;;;;;;;4.63;4.27;;;30.40;85.70;;;;;;5017747;28;20456;-63
2022/06/29 16:39:36;;;;;;;4.70;4.40;;;30.50;85.20;;;;;;5017262;28;20456;-63
2022/06/29 16:42:03;;;;;;;7.97;7.17;;;30.40;84.50;;;;;;5017561;28;20468;-63
2022/06/29 16:44:31;;;;;;;5.00;4.57;;;30.40;86.10;;;;;;5017439;28;20876;-63
2022/06/29 16:46:57;;;;;;;4.03;3.83;;;30.30;85.00;;;;;;5017492;28;20456;-63
2022/06/29 16:49:24;;;;;;;5.13;4.67;;;30.30;84.80;;;;;;5017172;28;20457;-62
2022/06/29 16:51:52;;;;;;;4.87;4.43;;;30.30;84.40;;;;;;5017063;28;20531;-63
2022/06/29 16:54:19;;;;;;;4.57;4.17;;;30.30;85.10;;;;;;5017452;28;20449;-63
2022/06/29 16:56:48;;;;;;;4.80;4.40;;;30.20;85.20;;;;;;5016837;28;20932;-63
2022/06/29 16:59:15;;;;;;;5.13;4.30;;;30.20;86.30;;;;;;5017021;28;20459;-63
2022/06/29 17:01:42;;;;;;;4.60;4.20;;;30.20;86.60;;;;;;5016901;28;20539;-63
2022/06/29 17:04:08;;;;;;;4.63;4.23;;;30.10;86.30;;;;;;5017138;28;21010;-63
2022/06/29 17:06:35;;;;;;;6.13;4.10;;;30.10;86.10;;;;;;5017544;28;20453;-62
2022/06/29 17:09:02;;;;;;;5.40;4.20;;;30.10;86.60;;;;;;5017526;28;20948;-63
2022/06/29 17:11:29;;;;;;;4.57;4.17;;;30.00;87.60;;;;;;5017616;28;20485;-63
2022/06/29 17:13:57;;;;;;;4.63;4.20;;;29.90;85.10;;;;;;5017925;28;20460;-63
2022/06/29 17:16:24;;;;;;;4.30;3.90;;;29.80;86.70;;;;;;5016778;28;20453;-63